| time (UTC) | temp C | wind direction | speed KPH | gust KPH | rain 1hr cm | rain 24hr cm | rain mn cm | humidity % | barometer mb |
| 20260506213058 | 14 | 255 | 3.2 | 11.3 | 0.00 | 0.18 | 0.18 | 79 | 1010.9 |
| 20260506211600 | 14 | 70 | 4.8 | 12.9 | 0.00 | 0.18 | 0.18 | 78 | 1010.7 |
| 20260506210057 | 14 | 272 | 3.2 | 16.1 | 0.00 | 0.18 | 0.18 | 78 | 1010.6 |
| 20260506204616 | 14 | 149 | 3.2 | 19.3 | 0.00 | 0.18 | 0.18 | 78 | 1010.4 |
| 20260506203053 | 14 | 275 | 3.2 | 14.5 | 0.00 | 0.18 | 0.18 | 79 | 1010.2 |
| 20260506201559 | 15 | 209 | 4.8 | 12.9 | 0.00 | 0.18 | 0.18 | 79 | 1010.0 |
| 20260506200056 | 15 | 276 | 3.2 | 14.5 | 0.00 | 0.18 | 0.18 | 81 | 1009.8 |
| 20260506194555 | 15 | 252 | 1.6 | 11.3 | 0.00 | 0.18 | 0.18 | 81 | 1009.4 |
| 20260506193056 | 15 | 68 | 1.6 | 11.3 | 0.00 | 0.18 | 0.18 | 80 | 1009.1 |
| 20260506191557 | 16 | 264 | 3.2 | 11.3 | 0.00 | 0.18 | 0.18 | 78 | 1008.7 |
| 20260506190104 | 16 | 258 | 4.8 | 11.3 | 0.00 | 0.18 | 0.18 | 75 | 1008.3 |
| 20260506184558 | 16 | 269 | 1.6 | 4.8 | 0.00 | 0.18 | 0.18 | 75 | 1008.1 |
| 20260506183057 | 16 | 250 | 1.6 | 11.3 | 0.00 | 0.18 | 0.18 | 74 | 1007.8 |
| 20260506181559 | 17 | 253 | 1.6 | 9.7 | 0.00 | 0.18 | 0.18 | 70 | 1007.3 |
| 20260506180052 | 17 | 0 | 3.2 | 8.0 | 0.00 | 0.18 | 0.18 | 66 | 1007.0 |
| 20260506174559 | 18 | 360 | 4.8 | 9.7 | 0.00 | 0.18 | 0.18 | 65 | 1006.9 |
| 20260506173128 | 18 | 283 | 1.6 | 12.9 | 0.00 | 0.18 | 0.18 | 63 | 1006.5 |
| 20260506171556 | 18 | 244 | 3.2 | 14.5 | 0.00 | 0.18 | 0.18 | 61 | 1006.2 |
| 20260506170056 | 18 | 55 | 3.2 | 12.9 | 0.00 | 0.18 | 0.18 | 60 | 1006.2 |
| 20260506164552 | 19 | 204 | 4.8 | 14.5 | 0.00 | 0.18 | 0.18 | 60 | 1006.0 |
| 20260506163056 | 19 | 244 | 3.2 | 16.1 | 0.00 | 0.18 | 0.18 | 61 | 1006.0 |
| 20260506161600 | 20 | 81 | 3.2 | 14.5 | 0.00 | 0.18 | 0.18 | 61 | 1006.0 |
| 20260506160109 | 20 | 237 | 3.2 | 12.9 | 0.00 | 0.18 | 0.18 | 62 | 1005.8 |
| 20260506154601 | 20 | 264 | 3.2 | 16.1 | 0.00 | 0.18 | 0.18 | 61 | 1005.7 |
| 20260506153058 | 20 | 307 | 3.2 | 14.5 | 0.00 | 0.18 | 0.18 | 61 | 1005.8 |
| 20260506151558 | 20 | 243 | 3.2 | 14.5 | 0.00 | 0.18 | 0.18 | 60 | 1005.8 |
| 20260506144610 | 20 | 202 | 1.6 | 6.4 | 0.00 | 0.18 | 0.18 | 57 | 1006.0 |
| 20260506143056 | 20 | 164 | 0.0 | 6.4 | 0.00 | 0.18 | 0.18 | 54 | 1005.9 |
| 20260506141553 | 20 | 0 | 1.6 | 6.4 | 0.00 | 0.18 | 0.18 | 56 | 1006.1 |
| 20260506140106 | 20 | 0 | 0.0 | 3.2 | 0.00 | 0.18 | 0.18 | 56 | 1006.2 |
| 20260506134601 | 20 | 148 | 0.0 | 4.8 | 0.00 | 0.18 | 0.18 | 59 | 1006.3 |
| 20260506133130 | 19 | 159 | 0.0 | 6.4 | 0.00 | 0.18 | 0.18 | 60 | 1006.5 |
| 20260506131554 | 19 | 173 | 0.0 | 4.8 | 0.00 | 0.18 | 0.18 | 57 | 1006.5 |
| 20260506130136 | 18 | 0 | 0.0 | 4.8 | 0.00 | 0.18 | 0.18 | 58 | 1006.7 |
| 20260506124554 | 18 | 165 | 0.0 | 4.8 | 0.00 | 0.18 | 0.18 | 63 | 1006.8 |
| 20260506123052 | 18 | 198 | 0.0 | 4.8 | 0.00 | 0.18 | 0.18 | 63 | 1006.8 |
| 20260506121556 | 18 | 231 | 0.0 | 6.4 | 0.00 | 0.18 | 0.18 | 64 | 1006.8 |
| 20260506120103 | 18 | 259 | 1.6 | 6.4 | 0.00 | 0.18 | 0.18 | 66 | 1006.9 |
| 20260506114554 | 18 | 149 | 1.6 | 6.4 | 0.00 | 0.18 | 0.18 | 67 | 1006.9 |
| 20260506113058 | 17 | 0 | 0.0 | 3.2 | 0.00 | 0.18 | 0.18 | 69 | 1007.0 |
| 20260506111554 | 18 | 189 | 1.6 | 4.8 | 0.00 | 0.18 | 0.18 | 70 | 1007.1 |
| 20260506110057 | 17 | 162 | 1.6 | 4.8 | 0.00 | 0.18 | 0.18 | 72 | 1007.4 |
| 20260506104605 | 17 | 0 | 0.0 | 3.2 | 0.00 | 0.18 | 0.18 | 72 | 1007.5 |
| 20260506103057 | 16 | 236 | 0.0 | 3.2 | 0.00 | 0.18 | 0.18 | 73 | 1007.5 |
| 20260506101550 | 16 | 170 | 0.0 | 9.7 | 0.00 | 0.18 | 0.18 | 78 | 1007.6 |
| 20260506100108 | 15 | 350 | 1.6 | 8.0 | 0.00 | 0.18 | 0.18 | 79 | 1007.7 |
| 20260506094602 | 14 | 279 | 1.6 | 9.7 | 0.00 | 0.25 | 0.18 | 81 | 1007.9 |
| 20260506093053 | 14 | 254 | 3.2 | 11.3 | 0.00 | 0.25 | 0.18 | 81 | 1008.0 |
| 20260506091557 | 14 | 259 | 1.6 | 11.3 | 0.00 | 0.25 | 0.18 | 83 | 1008.0 |
| 20260506090052 | 14 | 252 | 1.6 | 12.9 | 0.00 | 0.25 | 0.18 | 84 | 1008.0 |
| 20260506084559 | 15 | 263 | 3.2 | 9.7 | 0.00 | 0.36 | 0.18 | 83 | 1008.0 |
| 20260506083057 | 15 | 0 | 0.0 | 4.8 | 0.00 | 0.36 | 0.18 | 85 | 1008.0 |
| 20260506081606 | 14 | 0 | 1.6 | 4.8 | 0.00 | 0.36 | 0.18 | 86 | 1008.0 |
| 20260506073055 | 13 | 205 | 0.0 | 1.6 | 0.00 | 0.48 | 0.18 | 92 | 1008.1 |
| 20260506071558 | 13 | 0 | 0.0 | 0.0 | 0.00 | 0.48 | 0.18 | 93 | 1008.0 |
| 20260506061557 | 12 | 0 | 0.0 | 1.6 | 0.00 | 0.51 | 0.18 | 95 | 1008.5 |
| 20260506044600 | 12 | 0 | 0.0 | 0.0 | 0.05 | 0.64 | 0.13 | 94 | 1008.8 |
| 20260506043057 | 12 | 0 | 0.0 | 1.6 | 0.05 | 0.64 | 0.13 | 94 | 1008.9 |
| 20260506041553 | 12 | 0 | 0.0 | 1.6 | 0.08 | 0.64 | 0.13 | 94 | 1008.9 |
| 20260506040057 | 12 | 218 | 0.0 | 1.6 | 0.10 | 0.64 | 0.10 | 94 | 1008.8 |
| 20260506034612 | 12 | 0 | 0.0 | 1.6 | 0.08 | 0.61 | 0.08 | 94 | 1009.2 |
| 20260506033054 | 12 | 0 | 0.0 | 1.6 | 0.08 | 0.61 | 0.08 | 93 | 1009.2 |
| 20260506031555 | 12 | 0 | 0.0 | 1.6 | 0.05 | 0.58 | 0.05 | 93 | 1009.4 |
| 20260506030052 | 12 | 0 | 0.0 | 1.6 | 0.00 | 0.53 | 0.00 | 93 | 1009.8 |
| 20260506024624 | 12 | 0 | 0.0 | 0.0 | 0.00 | 0.53 | 0.00 | 93 | 1010.0 |
| 20260506023105 | 12 | 0 | 0.0 | 0.0 | 0.00 | 0.53 | 0.00 | 93 | 1010.1 |
| 20260506021553 | 12 | 0 | 0.0 | 1.6 | 0.00 | 0.53 | 0.00 | 93 | 1010.0 |
| 20260506020056 | 12 | 0 | 0.0 | 1.6 | 0.00 | 0.53 | 0.00 | 93 | 1010.2 |
| 20260506014552 | 12 | 226 | 0.0 | 0.0 | 0.00 | 0.56 | 0.00 | 93 | 1010.2 |
| 20260506013108 | 12 | 0 | 0.0 | 0.0 | 0.00 | 0.56 | 0.00 | 93 | 1010.3 |
| 20260506011557 | 12 | 0 | 0.0 | 0.0 | 0.00 | 0.56 | 0.00 | 93 | 1010.4 |
| 20260506010118 | 12 | 0 | 0.0 | 0.0 | 0.00 | 0.56 | 0.00 | 93 | 1010.6 |
| 20260506004556 | 12 | 0 | 0.0 | 1.6 | 0.00 | 0.56 | 0.00 | 92 | 1011.0 |
| 20260506003056 | 12 | 0 | 0.0 | 0.0 | 0.00 | 0.56 | 0.00 | 92 | 1011.3 |
| 20260506001602 | 12 | 0 | 0.0 | 0.0 | 0.00 | 0.56 | 0.00 | 92 | 1011.8 |
| 20260506000056 | 12 | 0 | 0.0 | 0.0 | 0.00 | 0.56 | 0.00 | 92 | 1012.0 |
| 20260505234555 | 12 | 0 | 0.0 | 0.0 | 0.00 | 0.61 | 0.00 | 91 | 1012.1 |
| 20260505233105 | 12 | 0 | 0.0 | 0.0 | 0.00 | 0.61 | 0.00 | 91 | 1012.2 |
| 20260505231554 | 12 | 0 | 0.0 | 0.0 | 0.00 | 0.61 | 0.00 | 91 | 1012.2 |
| 20260505230056 | 12 | 168 | 0.0 | 0.0 | 0.00 | 0.61 | 0.00 | 91 | 1012.3 |
| 20260505224552 | 12 | 0 | 0.0 | 0.0 | 0.00 | 0.61 | 0.00 | 91 | 1012.3 |
| 20260505223056 | 13 | 0 | 0.0 | 0.0 | 0.00 | 0.61 | 0.00 | 90 | 1012.5 |
| 20260505221552 | 13 | 0 | 0.0 | 1.6 | 0.00 | 0.61 | 0.00 | 89 | 1012.6 |
| 20260505220055 | 13 | 0 | 0.0 | 0.0 | 0.00 | 0.61 | 0.00 | 89 | 1012.5 |
| 20260505214609 | 13 | 0 | 0.0 | 1.6 | 0.00 | 0.61 | 0.61 | 89 | 1012.5 |